createdAt,value
2017-01-05T00:00:13.192Z,17.11
2017-01-05T00:01:13.352Z,17.17
2017-01-05T00:02:12.884Z,17.19
2017-01-05T00:03:12.666Z,17.21
2017-01-05T00:04:12.437Z,16.67
2017-01-05T00:05:13.216Z,16.63
2017-01-05T00:06:13.155Z,16.59
2017-01-05T00:07:12.923Z,16.58
2017-01-05T00:08:13.499Z,16.57
2017-01-05T00:09:13.051Z,16.58
2017-01-05T00:10:12.861Z,16.57
2017-01-05T00:11:10.537Z,16.57
2017-01-05T00:12:12.104Z,17.10
2017-01-05T00:13:13.396Z,17.17
2017-01-05T00:14:12.561Z,17.18
2017-01-05T00:15:13.201Z,17.20
2017-01-05T00:16:11.238Z,16.68
2017-01-05T00:17:12.836Z,16.62
2017-01-05T00:18:11.191Z,16.59
2017-01-05T00:19:13.577Z,16.84
2017-01-05T00:20:12.775Z,16.63
2017-01-05T00:21:12.556Z,16.62
2017-01-05T00:22:12.432Z,16.62
2017-01-05T00:23:14.266Z,16.57
2017-01-05T00:24:12.761Z,16.56
2017-01-05T00:25:12.570Z,16.56
2017-01-05T00:26:13.196Z,16.63
2017-01-05T00:27:13.037Z,16.57
2017-01-05T00:28:11.280Z,16.56
2017-01-05T00:29:13.031Z,17.08
2017-01-05T00:30:13.082Z,16.88
2017-01-05T00:31:12.900Z,16.65
2017-01-05T00:32:13.094Z,16.60
2017-01-05T00:33:11.991Z,16.57
2017-01-05T00:34:14.082Z,17.11
2017-01-05T00:35:13.642Z,17.16
2017-01-05T00:36:12.294Z,16.65
2017-01-05T00:37:10.864Z,16.60
2017-01-05T00:38:13.244Z,16.58
2017-01-05T00:39:12.357Z,16.58
2017-01-05T00:40:12.792Z,16.64
2017-01-05T00:41:13.306Z,16.56
2017-01-05T00:42:11.351Z,16.55
2017-01-05T00:43:13.235Z,16.56
2017-01-05T00:44:13.867Z,16.56
2017-01-05T00:45:12.487Z,16.56
2017-01-05T00:46:13.012Z,16.62
2017-01-05T00:47:13.716Z,16.58
2017-01-05T00:48:12.320Z,16.58
2017-01-05T00:49:12.786Z,16.58
2017-01-05T00:50:12.448Z,16.57
2017-01-05T00:51:13.285Z,16.58
2017-01-05T00:52:12.357Z,16.57
2017-01-05T00:53:13.254Z,16.57
2017-01-05T00:54:13.834Z,16.56
2017-01-05T00:55:13.638Z,16.58
2017-01-05T00:56:12.254Z,16.55
2017-01-05T00:57:12.837Z,16.61
2017-01-05T00:58:12.528Z,16.55
2017-01-05T00:59:13.115Z,16.54
2017-01-05T01:00:13.378Z,16.53
2017-01-05T01:01:13.530Z,17.07
2017-01-05T01:02:14.354Z,17.12
2017-01-05T01:03:13.063Z,17.14
2017-01-05T01:04:10.079Z,17.15
2017-01-05T01:05:14.471Z,16.63
2017-01-05T01:06:13.264Z,16.57
2017-01-05T01:07:12.927Z,16.55
2017-01-05T01:08:13.390Z,16.54
2017-01-05T01:09:12.301Z,16.53
2017-01-05T01:10:16.151Z,16.53
2017-01-05T01:11:10.509Z,16.52
2017-01-05T01:12:13.655Z,16.52
2017-01-05T01:13:13.073Z,16.52
2017-01-05T01:14:12.898Z,16.53
2017-01-05T01:15:13.874Z,16.52
2017-01-05T01:16:14.113Z,16.50
2017-01-05T01:17:14.433Z,16.50
2017-01-05T01:18:12.309Z,16.51
2017-01-05T01:19:14.758Z,16.50
2017-01-05T01:20:13.133Z,16.51
2017-01-05T01:21:12.215Z,16.51
2017-01-05T01:22:10.317Z,16.52
2017-01-05T01:23:09.156Z,16.52
2017-01-05T01:24:12.024Z,16.52
2017-01-05T01:25:12.707Z,16.53
2017-01-05T01:26:18.549Z,17.09
2017-01-05T01:27:12.869Z,17.13
2017-01-05T01:28:13.101Z,17.16
2017-01-05T01:29:13.445Z,17.17
2017-01-05T01:30:13.364Z,17.19
2017-01-05T01:31:15.121Z,17.20
2017-01-05T01:32:10.791Z,17.19
2017-01-05T01:33:12.790Z,16.82
2017-01-05T01:34:14.189Z,16.66
2017-01-05T01:35:13.674Z,16.60
2017-01-05T01:36:12.434Z,16.59
2017-01-05T01:37:16.520Z,16.57
2017-01-05T01:38:09.856Z,16.56
2017-01-05T01:39:12.063Z,16.55
2017-01-05T01:40:11.495Z,16.55
2017-01-05T01:41:14.661Z,17.09
2017-01-05T01:42:11.676Z,17.14
2017-01-05T01:43:11.795Z,17.18
2017-01-05T01:44:13.258Z,17.19
2017-01-05T01:45:12.492Z,17.19
2017-01-05T01:46:14.383Z,16.66
2017-01-05T01:47:15.232Z,16.61
2017-01-05T01:48:14.904Z,16.58
2017-01-05T01:49:16.296Z,16.61
2017-01-05T01:50:15.603Z,16.56
2017-01-05T01:51:14.368Z,16.55
2017-01-05T01:52:13.900Z,16.56
2017-01-05T01:53:13.156Z,16.55
2017-01-05T01:54:14.897Z,16.54
2017-01-05T01:55:10.599Z,16.54
2017-01-05T01:56:12.801Z,16.55
2017-01-05T01:57:14.285Z,16.60
2017-01-05T01:58:12.854Z,16.54
2017-01-05T01:59:12.013Z,16.55
2017-01-05T02:00:13.810Z,16.54
2017-01-05T02:01:13.259Z,16.55
2017-01-05T02:02:12.119Z,16.54
2017-01-05T02:03:14.221Z,16.54
2017-01-05T02:04:13.314Z,16.54
2017-01-05T02:05:13.491Z,16.55
2017-01-05T02:06:11.836Z,16.55
2017-01-05T02:07:15.987Z,16.55
2017-01-05T02:08:15.546Z,16.55
2017-01-05T02:09:15.715Z,16.56
2017-01-05T02:10:11.803Z,16.56
2017-01-05T02:11:13.616Z,16.62
2017-01-05T02:12:13.808Z,16.55
2017-01-05T02:13:13.563Z,16.59
2017-01-05T02:14:13.582Z,16.58
2017-01-05T02:15:13.016Z,16.55
2017-01-05T02:16:13.171Z,16.55
2017-01-05T02:17:15.171Z,16.55
2017-01-05T02:18:11.945Z,16.54
2017-01-05T02:19:15.234Z,16.54
2017-01-05T02:20:14.889Z,16.54
2017-01-05T02:21:14.551Z,16.55
2017-01-05T02:22:12.236Z,16.54
2017-01-05T02:23:12.865Z,16.55
2017-01-05T02:24:12.131Z,16.55
2017-01-05T02:25:10.424Z,16.54
2017-01-05T02:26:14.688Z,16.55
2017-01-05T02:27:15.658Z,16.56
2017-01-05T02:28:13.759Z,16.55
2017-01-05T02:29:13.648Z,16.56
2017-01-05T02:30:14.716Z,16.56
2017-01-05T02:31:12.125Z,16.54
2017-01-05T02:32:13.223Z,16.54
2017-01-05T02:33:13.782Z,16.55
2017-01-05T02:34:13.288Z,16.55
2017-01-05T02:35:10.758Z,16.55
2017-01-05T02:36:12.934Z,16.56
2017-01-05T02:37:14.227Z,16.57
2017-01-05T02:38:14.885Z,16.56
2017-01-05T02:39:12.697Z,16.57
2017-01-05T02:40:12.141Z,16.55
2017-01-05T02:41:14.391Z,16.56
2017-01-05T02:42:13.002Z,16.55
2017-01-05T02:43:11.945Z,16.55
2017-01-05T02:44:11.613Z,16.56
2017-01-05T02:45:12.594Z,16.55
2017-01-05T02:46:12.952Z,16.59
2017-01-05T02:47:12.691Z,16.57
2017-01-05T02:48:13.750Z,16.55
2017-01-05T02:49:14.536Z,16.55
2017-01-05T02:50:14.301Z,16.59
2017-01-05T02:51:10.264Z,16.54
2017-01-05T02:52:13.302Z,16.55
2017-01-05T02:53:14.937Z,16.55
2017-01-05T02:54:14.976Z,16.55
2017-01-05T02:55:12.457Z,16.55
2017-01-05T02:56:12.895Z,16.59
2017-01-05T02:57:12.072Z,16.55
2017-01-05T02:58:13.944Z,16.54
2017-01-05T02:59:12.664Z,16.58
2017-01-05T03:00:12.355Z,16.56
2017-01-05T03:01:14.984Z,16.55
2017-01-05T03:02:13.203Z,16.55
2017-01-05T03:03:12.336Z,16.55
2017-01-05T03:04:13.850Z,16.58
2017-01-05T03:05:13.130Z,16.54
2017-01-05T03:06:10.821Z,16.54
2017-01-05T03:07:13.534Z,16.56
2017-01-05T03:08:15.407Z,16.54
2017-01-05T03:09:13.493Z,16.55
2017-01-05T03:10:13.048Z,16.54
2017-01-05T03:11:09.226Z,16.54
2017-01-05T03:12:12.316Z,16.54
2017-01-05T03:13:13.341Z,16.55
2017-01-05T03:14:12.320Z,16.55
2017-01-05T03:15:12.462Z,16.54
2017-01-05T03:16:12.870Z,16.60
2017-01-05T03:17:13.076Z,16.55
2017-01-05T03:18:13.357Z,16.62
2017-01-05T03:19:14.187Z,16.54
2017-01-05T03:20:11.106Z,16.54
2017-01-05T03:21:14.749Z,16.54
2017-01-05T03:22:12.497Z,16.54
2017-01-05T03:23:12.582Z,16.55
2017-01-05T03:24:12.657Z,16.55
2017-01-05T03:25:10.555Z,16.54
2017-01-05T03:26:11.658Z,17.09
2017-01-05T03:27:12.513Z,17.14
2017-01-05T03:28:11.291Z,17.15
2017-01-05T03:29:13.319Z,17.19
2017-01-05T03:30:15.345Z,17.19
2017-01-05T03:31:13.903Z,17.19
2017-01-05T03:32:13.281Z,16.66
2017-01-05T03:33:11.447Z,16.60
2017-01-05T03:34:13.878Z,17.11
2017-01-05T03:35:13.834Z,17.15
2017-01-05T03:36:11.872Z,16.84
2017-01-05T03:37:12.466Z,16.64
2017-01-05T03:38:11.206Z,16.59
2017-01-05T03:39:09.828Z,17.11
2017-01-05T03:40:13.076Z,16.63
2017-01-05T03:41:13.253Z,16.60
2017-01-05T03:42:13.453Z,16.55
2017-01-05T03:43:12.998Z,16.55
2017-01-05T03:44:13.106Z,16.58
2017-01-05T03:45:12.730Z,16.55
2017-01-05T03:46:12.815Z,16.57
2017-01-05T03:47:11.851Z,16.54
2017-01-05T03:48:11.762Z,16.54
2017-01-05T03:49:12.665Z,16.59
2017-01-05T03:50:13.303Z,16.54
2017-01-05T03:51:14.000Z,16.53
2017-01-05T03:52:13.907Z,16.54
2017-01-05T03:53:12.986Z,16.56
2017-01-05T03:54:13.375Z,17.06
2017-01-05T03:55:13.058Z,16.77
2017-01-05T03:56:13.273Z,16.61
2017-01-05T03:57:13.237Z,16.57
2017-01-05T03:58:13.929Z,16.56
2017-01-05T03:59:12.380Z,16.60
2017-01-05T04:00:11.133Z,16.54
2017-01-05T04:01:13.426Z,16.58
2017-01-05T04:02:13.307Z,16.54
2017-01-05T04:03:13.553Z,16.54
2017-01-05T04:04:13.339Z,16.54
2017-01-05T04:05:11.027Z,16.52
2017-01-05T04:06:14.243Z,16.53
2017-01-05T04:07:13.085Z,16.53
2017-01-05T04:08:12.466Z,16.53
2017-01-05T04:09:15.061Z,16.53
2017-01-05T04:10:13.831Z,16.52
2017-01-05T04:11:13.262Z,16.59
2017-01-05T04:12:12.361Z,16.53
2017-01-05T04:13:12.880Z,16.53
2017-01-05T04:14:11.657Z,16.52
2017-01-05T04:15:12.384Z,17.07
2017-01-05T04:16:12.933Z,17.13
2017-01-05T04:17:13.346Z,17.15
2017-01-05T04:18:12.977Z,17.17
2017-01-05T04:19:11.997Z,16.85
2017-01-05T04:20:12.606Z,16.63
2017-01-05T04:21:14.447Z,16.58
2017-01-05T04:22:13.134Z,16.57
2017-01-05T04:23:13.030Z,16.54
2017-01-05T04:24:12.720Z,16.54
2017-01-05T04:25:12.281Z,16.54
2017-01-05T04:26:14.304Z,16.54
2017-01-05T04:27:12.296Z,16.53
2017-01-05T04:28:14.075Z,16.56
2017-01-05T04:29:12.619Z,16.52
2017-01-05T04:30:13.278Z,16.53
2017-01-05T04:31:09.599Z,16.52
2017-01-05T04:32:13.114Z,16.53
2017-01-05T04:33:13.542Z,16.53
2017-01-05T04:34:14.871Z,16.52
2017-01-05T04:35:13.070Z,17.05
2017-01-05T04:36:12.503Z,16.75
2017-01-05T04:37:12.635Z,16.60
2017-01-05T04:38:09.774Z,16.56
2017-01-05T04:39:12.694Z,16.55
2017-01-05T04:40:12.432Z,16.56
2017-01-05T04:41:13.214Z,16.53
2017-01-05T04:42:13.206Z,16.59
2017-01-05T04:43:12.285Z,16.52
2017-01-05T04:44:10.454Z,16.52
2017-01-05T04:45:12.099Z,17.07
2017-01-05T04:46:12.157Z,17.11
2017-01-05T04:47:13.980Z,16.79
2017-01-05T04:48:12.623Z,16.62
2017-01-05T04:49:14.553Z,16.57
2017-01-05T04:50:08.888Z,16.55
2017-01-05T04:51:13.124Z,16.54
2017-01-05T04:52:12.628Z,16.61
2017-01-05T04:53:11.674Z,16.53
2017-01-05T04:54:14.389Z,16.53
2017-01-05T04:55:12.890Z,16.52
2017-01-05T04:56:13.124Z,16.52
2017-01-05T04:57:12.184Z,16.52
2017-01-05T04:58:13.916Z,16.52
2017-01-05T04:59:13.453Z,16.53
2017-01-05T05:00:12.469Z,16.53
2017-01-05T05:01:13.079Z,16.60
2017-01-05T05:02:12.001Z,17.06
2017-01-05T05:03:12.643Z,17.12
2017-01-05T05:04:14.021Z,17.14
2017-01-05T05:05:12.704Z,17.16
2017-01-05T05:06:12.346Z,17.17
2017-01-05T05:07:12.880Z,17.17
2017-01-05T05:08:12.684Z,17.18
2017-01-05T05:09:12.236Z,16.65
2017-01-05T05:10:12.348Z,16.63
2017-01-05T05:11:11.099Z,16.56
2017-01-05T05:12:13.409Z,17.08
2017-01-05T05:13:12.389Z,17.14
2017-01-05T05:14:13.254Z,17.15
2017-01-05T05:15:13.214Z,17.17
2017-01-05T05:16:13.093Z,17.18
2017-01-05T05:17:14.410Z,16.63
2017-01-05T05:18:13.074Z,16.58
2017-01-05T05:19:13.874Z,16.59
2017-01-05T05:20:11.878Z,16.55
2017-01-05T05:21:10.835Z,16.53
2017-01-05T05:22:12.807Z,16.53
2017-01-05T05:23:12.704Z,16.53
2017-01-05T05:24:12.588Z,16.52
2017-01-05T05:25:13.286Z,16.52
2017-01-05T05:26:12.988Z,16.52
2017-01-05T05:27:15.317Z,16.53
2017-01-05T05:28:15.733Z,16.52
2017-01-05T05:29:13.089Z,16.52
2017-01-05T05:30:10.770Z,16.51
2017-01-05T05:31:12.606Z,17.05
2017-01-05T05:32:13.954Z,17.11
2017-01-05T05:33:13.655Z,17.14
2017-01-05T05:34:14.387Z,17.17
2017-01-05T05:35:09.612Z,16.63
2017-01-05T05:36:12.446Z,16.63
2017-01-05T05:37:14.167Z,16.54
2017-01-05T05:38:12.140Z,16.54
2017-01-05T05:39:12.956Z,16.57
2017-01-05T05:40:13.294Z,16.52
2017-01-05T05:41:12.953Z,16.52
2017-01-05T05:42:12.829Z,16.52
2017-01-05T05:43:12.288Z,16.58
2017-01-05T05:44:12.359Z,16.50
2017-01-05T05:45:12.456Z,16.51
2017-01-05T05:46:11.103Z,16.50
2017-01-05T05:47:12.323Z,17.04
2017-01-05T05:48:14.456Z,17.11
2017-01-05T05:49:14.986Z,17.14
2017-01-05T05:50:10.483Z,17.15
2017-01-05T05:51:11.624Z,17.17
2017-01-05T05:52:12.804Z,17.17
2017-01-05T05:53:12.697Z,17.17
2017-01-05T05:54:13.742Z,17.18
2017-01-05T05:55:12.020Z,17.17
2017-01-05T05:56:12.131Z,17.17
2017-01-05T05:57:10.307Z,17.18
2017-01-05T05:58:14.160Z,16.62
2017-01-05T05:59:10.288Z,16.58
2017-01-05T06:00:13.071Z,16.74
2017-01-05T06:01:11.884Z,16.58
2017-01-05T06:02:14.810Z,16.54
2017-01-05T06:03:12.053Z,16.54
2017-01-05T06:04:11.835Z,16.54
2017-01-05T06:05:13.415Z,16.53
2017-01-05T06:06:13.281Z,16.52
2017-01-05T06:07:12.339Z,16.52
2017-01-05T06:08:13.916Z,16.52
2017-01-05T06:09:12.019Z,16.51
2017-01-05T06:10:10.876Z,16.50
2017-01-05T06:11:14.034Z,17.05
2017-01-05T06:12:14.079Z,16.73
2017-01-05T06:13:12.654Z,16.60
2017-01-05T06:14:09.743Z,16.55
2017-01-05T06:15:13.174Z,16.54
2017-01-05T06:16:12.099Z,16.53
2017-01-05T06:17:13.795Z,16.52
2017-01-05T06:18:12.633Z,16.52
2017-01-05T06:19:12.404Z,16.50
2017-01-05T06:20:13.879Z,16.52
2017-01-05T06:21:10.211Z,16.50
2017-01-05T06:22:19.249Z,16.50
2017-01-05T06:23:14.458Z,16.50
2017-01-05T06:24:13.286Z,16.50
2017-01-05T06:25:12.268Z,16.51
2017-01-05T06:26:12.990Z,16.51
2017-01-05T06:27:10.802Z,16.50
2017-01-05T06:28:10.588Z,16.50
2017-01-05T06:29:13.269Z,16.57
2017-01-05T06:30:13.192Z,16.51
2017-01-05T06:31:12.831Z,16.50
2017-01-05T06:32:14.009Z,17.05
2017-01-05T06:33:13.609Z,17.10
2017-01-05T06:34:12.433Z,17.13
2017-01-05T06:35:13.686Z,17.14
2017-01-05T06:36:11.633Z,17.15
2017-01-05T06:37:11.513Z,17.15
2017-01-05T06:38:12.952Z,17.18
2017-01-05T06:39:12.631Z,17.17
2017-01-05T06:40:13.089Z,16.83
2017-01-05T06:41:12.177Z,16.63
2017-01-05T06:42:11.420Z,16.57
2017-01-05T06:43:13.996Z,17.07
2017-01-05T06:44:15.557Z,17.13
2017-01-05T06:45:11.763Z,17.14
2017-01-05T06:46:10.679Z,16.62
2017-01-05T06:47:12.437Z,16.75
2017-01-05T06:48:12.767Z,16.66
2017-01-05T06:49:10.719Z,16.55
2017-01-05T06:50:12.126Z,16.53
2017-01-05T06:51:13.156Z,16.52
2017-01-05T06:52:10.566Z,16.51
2017-01-05T06:53:12.337Z,16.51
2017-01-05T06:54:10.055Z,16.50
2017-01-05T06:55:12.641Z,16.50
2017-01-05T06:56:11.565Z,16.51
2017-01-05T06:57:11.764Z,16.50
2017-01-05T06:58:11.808Z,16.50
2017-01-05T06:59:11.845Z,16.50
2017-01-05T07:00:12.942Z,16.50
2017-01-05T07:01:12.887Z,16.50
2017-01-05T07:02:12.828Z,16.50
2017-01-05T07:03:12.368Z,16.56
2017-01-05T07:04:13.239Z,16.53
2017-01-05T07:05:13.075Z,16.50
2017-01-05T07:06:12.120Z,16.50
2017-01-05T07:07:14.310Z,17.05
2017-01-05T07:08:14.142Z,17.09
2017-01-05T07:09:12.111Z,17.12
2017-01-05T07:10:12.730Z,17.14
2017-01-05T07:11:11.945Z,16.80
2017-01-05T07:12:13.798Z,16.63
2017-01-05T07:13:11.888Z,16.59
2017-01-05T07:14:13.349Z,16.55
2017-01-05T07:15:13.019Z,16.55
2017-01-05T07:16:12.830Z,16.53
2017-01-05T07:17:13.498Z,16.53
2017-01-05T07:18:15.797Z,16.53
2017-01-05T07:19:10.927Z,16.52
2017-01-05T07:20:13.010Z,16.52
2017-01-05T07:21:12.104Z,16.52
2017-01-05T07:22:13.147Z,16.51
2017-01-05T07:23:14.115Z,16.52
2017-01-05T07:24:13.037Z,16.53
2017-01-05T07:25:13.554Z,16.51
2017-01-05T07:26:12.651Z,16.51
2017-01-05T07:27:15.832Z,16.50
2017-01-05T07:28:10.504Z,16.50
2017-01-05T07:29:12.293Z,16.52
2017-01-05T07:30:12.922Z,16.59
2017-01-05T07:31:13.566Z,16.68
2017-01-05T07:32:12.257Z,16.61
2017-01-05T07:33:11.425Z,16.54
2017-01-05T07:34:13.461Z,16.57
2017-01-05T07:35:12.529Z,16.52
2017-01-05T07:36:13.085Z,16.51
2017-01-05T07:37:12.755Z,16.51
2017-01-05T07:38:13.451Z,16.50
2017-01-05T07:39:14.158Z,16.50
2017-01-05T07:40:11.132Z,16.49
2017-01-05T07:41:12.391Z,16.56
2017-01-05T07:42:11.289Z,16.49
2017-01-05T07:43:13.321Z,16.68
2017-01-05T07:44:13.277Z,16.56
2017-01-05T07:45:13.245Z,16.53
2017-01-05T07:46:10.902Z,16.51
2017-01-05T07:47:12.644Z,17.04
2017-01-05T07:48:13.227Z,17.09
2017-01-05T07:49:12.278Z,17.13
2017-01-05T07:50:12.248Z,16.79
2017-01-05T07:51:12.751Z,16.67
2017-01-05T07:52:12.274Z,16.63
2017-01-05T07:53:12.339Z,16.54
2017-01-05T07:54:11.422Z,16.51
2017-01-05T07:55:12.839Z,17.04
2017-01-05T07:56:12.687Z,17.11
2017-01-05T07:57:09.032Z,17.13
2017-01-05T07:58:11.020Z,17.13
2017-01-05T07:59:14.133Z,17.15
2017-01-05T08:00:15.328Z,16.80
2017-01-05T08:01:12.277Z,16.61
2017-01-05T08:02:13.826Z,16.56
2017-01-05T08:03:12.382Z,16.53
2017-01-05T08:04:13.949Z,16.52
2017-01-05T08:05:12.493Z,16.58
2017-01-05T08:06:11.433Z,16.51
2017-01-05T08:07:11.798Z,16.50
2017-01-05T08:08:12.937Z,16.50
2017-01-05T08:09:14.078Z,16.49
2017-01-05T08:10:13.207Z,16.52
2017-01-05T08:11:12.929Z,16.51
2017-01-05T08:12:11.103Z,16.51
2017-01-05T08:13:11.857Z,16.51
2017-01-05T08:14:12.887Z,16.51
2017-01-05T08:15:20.179Z,16.51
2017-01-05T08:16:13.618Z,16.52
2017-01-05T08:17:12.937Z,16.54
2017-01-05T08:18:13.011Z,16.53
2017-01-05T08:19:13.156Z,16.53
2017-01-05T08:20:13.210Z,16.54
2017-01-05T08:21:10.820Z,16.53
2017-01-05T08:22:12.160Z,16.54
2017-01-05T08:23:13.950Z,16.53
2017-01-05T08:24:13.559Z,16.53
2017-01-05T08:25:12.844Z,16.59
2017-01-05T08:26:11.932Z,16.53
2017-01-05T08:27:13.808Z,16.53
2017-01-05T08:28:11.811Z,16.53
2017-01-05T08:29:11.891Z,16.53
2017-01-05T08:30:13.478Z,16.53
2017-01-05T08:31:13.267Z,16.54
2017-01-05T08:32:13.055Z,16.53
2017-01-05T08:33:10.973Z,16.53
2017-01-05T08:34:12.599Z,16.61
2017-01-05T08:35:11.679Z,17.07
2017-01-05T08:36:13.558Z,17.13
2017-01-05T08:37:12.767Z,16.45
2017-01-05T08:38:14.805Z,13.00
2017-01-05T08:39:12.351Z,10.91
2017-01-05T08:40:11.512Z,9.26
2017-01-05T08:41:13.275Z,9.14
2017-01-05T08:42:12.296Z,7.98
2017-01-05T08:43:12.165Z,7.32
2017-01-05T08:44:14.424Z,7.77
2017-01-05T08:45:10.575Z,8.94
2017-01-05T08:46:12.323Z,10.16
2017-01-05T08:47:13.181Z,11.06
2017-01-05T08:48:12.362Z,11.77
2017-01-05T08:49:13.002Z,12.35
2017-01-05T08:50:12.048Z,13.40
2017-01-05T08:51:13.614Z,13.92
2017-01-05T08:52:12.495Z,14.25
2017-01-05T08:53:13.133Z,14.59
2017-01-05T08:54:13.665Z,14.51
2017-01-05T08:55:12.447Z,14.63
2017-01-05T08:56:14.950Z,14.76
2017-01-05T08:57:19.297Z,14.88
2017-01-05T08:58:10.889Z,15.00
2017-01-05T08:59:12.812Z,15.18
2017-01-05T09:00:12.423Z,15.28
2017-01-05T09:01:11.092Z,15.38
2017-01-05T09:02:12.452Z,15.47
2017-01-05T09:03:13.154Z,15.54
2017-01-05T09:04:10.745Z,15.61
2017-01-05T09:05:12.632Z,16.22
2017-01-05T09:06:12.523Z,16.34
2017-01-05T09:07:12.887Z,16.10
2017-01-05T09:08:11.887Z,15.95
2017-01-05T09:09:12.611Z,15.99
2017-01-05T09:10:11.927Z,16.03
2017-01-05T09:11:13.501Z,16.08
2017-01-05T09:12:12.498Z,16.12
2017-01-05T09:13:13.136Z,16.17
2017-01-05T09:14:12.283Z,16.20
2017-01-05T09:15:12.527Z,16.26
2017-01-05T09:16:12.832Z,16.34
2017-01-05T09:17:10.900Z,16.32
2017-01-05T09:18:12.459Z,16.43
2017-01-05T09:19:13.011Z,16.40
2017-01-05T09:20:13.814Z,16.46
2017-01-05T09:21:12.284Z,16.45
2017-01-05T09:22:13.851Z,16.49
2017-01-05T09:23:12.502Z,16.53
2017-01-05T09:24:13.595Z,16.58
2017-01-05T09:25:11.882Z,16.63
2017-01-05T09:26:12.353Z,16.71
2017-01-05T09:27:13.163Z,16.66
2017-01-05T09:28:12.879Z,16.66
2017-01-05T09:29:11.959Z,16.66
2017-01-05T09:30:12.670Z,16.68
2017-01-05T09:31:14.702Z,16.69
2017-01-05T09:32:13.431Z,16.70
2017-01-05T09:33:12.972Z,16.74
2017-01-05T09:34:12.200Z,16.72
2017-01-05T09:35:12.849Z,16.73
2017-01-05T09:36:13.459Z,16.75
2017-01-05T09:37:12.352Z,16.76
2017-01-05T09:38:12.852Z,16.82
2017-01-05T09:39:11.987Z,16.77
2017-01-05T09:40:12.591Z,16.77
2017-01-05T09:41:11.726Z,16.77
2017-01-05T09:42:11.732Z,16.76
2017-01-05T09:43:11.804Z,16.77
2017-01-05T09:44:12.465Z,16.75
2017-01-05T09:45:14.146Z,16.75
2017-01-05T09:46:12.190Z,16.75
2017-01-05T09:47:13.899Z,16.79
2017-01-05T09:48:11.978Z,16.76
2017-01-05T09:49:12.013Z,16.74
2017-01-05T09:50:12.639Z,16.72
2017-01-05T09:51:12.328Z,16.72
2017-01-05T09:52:13.079Z,16.70
2017-01-05T09:53:10.443Z,16.69
2017-01-05T09:54:11.699Z,16.69
2017-01-05T09:55:15.089Z,16.68
2017-01-05T09:56:14.045Z,16.68
2017-01-05T09:57:11.987Z,16.66
2017-01-05T09:58:11.871Z,16.65
2017-01-05T09:59:13.523Z,16.63
2017-01-05T10:00:13.280Z,16.62
2017-01-05T10:01:14.690Z,16.61
2017-01-05T10:02:12.353Z,16.60
2017-01-05T10:03:16.148Z,16.59
2017-01-05T10:04:13.840Z,16.57
2017-01-05T10:05:12.384Z,16.56
2017-01-05T10:06:13.235Z,16.56
2017-01-05T10:07:13.830Z,16.55
2017-01-05T10:08:12.506Z,16.53
2017-01-05T10:09:11.596Z,16.51
2017-01-05T10:10:12.466Z,16.51
2017-01-05T10:11:12.931Z,16.53
2017-01-05T10:12:12.645Z,16.68
2017-01-05T10:13:11.790Z,16.54
2017-01-05T10:14:11.895Z,16.50
2017-01-05T10:15:11.954Z,16.49
2017-01-05T10:16:11.992Z,16.47
2017-01-05T10:17:16.448Z,16.46
2017-01-05T10:18:12.684Z,16.46
2017-01-05T10:19:12.256Z,16.45
2017-01-05T10:20:13.183Z,16.45
2017-01-05T10:21:12.103Z,16.45
2017-01-05T10:22:12.153Z,16.44
2017-01-05T10:23:13.896Z,16.43
2017-01-05T10:24:13.476Z,16.43
2017-01-05T10:25:13.182Z,16.43
2017-01-05T10:26:12.255Z,16.42
2017-01-05T10:27:13.314Z,16.42
2017-01-05T10:28:12.403Z,16.41
2017-01-05T10:29:14.175Z,16.45
2017-01-05T10:30:12.773Z,16.40
2017-01-05T10:31:10.763Z,16.40
2017-01-05T10:32:12.528Z,16.61
2017-01-05T10:33:14.091Z,16.45
2017-01-05T10:34:12.782Z,16.42
2017-01-05T10:35:12.549Z,16.41
2017-01-05T10:36:13.101Z,16.41
2017-01-05T10:37:13.714Z,16.40
2017-01-05T10:38:12.334Z,16.40
2017-01-05T10:39:13.390Z,16.40
2017-01-05T10:40:12.442Z,16.40
2017-01-05T10:41:11.996Z,16.41
2017-01-05T10:42:13.612Z,16.40
2017-01-05T10:43:12.382Z,16.40
2017-01-05T10:44:12.415Z,16.41
2017-01-05T10:45:13.036Z,16.41
2017-01-05T10:46:12.037Z,16.43
2017-01-05T10:47:12.596Z,16.42
2017-01-05T10:48:12.621Z,16.43
2017-01-05T10:49:12.437Z,16.43
2017-01-05T10:50:13.145Z,16.44
2017-01-05T10:51:13.308Z,16.44
2017-01-05T10:52:14.938Z,16.45
2017-01-05T10:53:14.753Z,16.46
2017-01-05T10:54:12.625Z,16.49
2017-01-05T10:55:10.739Z,17.01
2017-01-05T10:56:13.398Z,17.07
2017-01-05T10:57:12.315Z,17.12
2017-01-05T10:58:13.804Z,17.14
2017-01-05T10:59:12.446Z,17.15
2017-01-05T11:00:12.463Z,17.18
2017-01-05T11:01:12.388Z,17.17
2017-01-05T11:02:12.925Z,17.20
2017-01-05T11:03:12.813Z,17.20
2017-01-05T11:04:13.334Z,17.20
2017-01-05T11:05:12.537Z,17.22
2017-01-05T11:06:10.651Z,16.67
2017-01-05T11:07:10.599Z,16.62
2017-01-05T11:08:12.301Z,16.60
2017-01-05T11:09:12.435Z,16.58
2017-01-05T11:10:13.360Z,16.60
2017-01-05T11:11:12.994Z,16.57
2017-01-05T11:12:11.906Z,16.58
2017-01-05T11:13:12.269Z,16.64
2017-01-05T11:14:13.833Z,16.58
2017-01-05T11:15:13.365Z,16.58
2017-01-05T11:16:12.412Z,16.58
2017-01-05T11:17:13.205Z,16.59
2017-01-05T11:18:13.310Z,16.59
2017-01-05T11:19:12.377Z,16.58
2017-01-05T11:20:11.018Z,16.58
2017-01-05T11:21:14.382Z,17.13
2017-01-05T11:22:12.080Z,16.65
2017-01-05T11:23:12.902Z,16.63
2017-01-05T11:24:12.043Z,16.61
2017-01-05T11:25:12.683Z,16.60
2017-01-05T11:26:11.800Z,16.60
2017-01-05T11:27:12.277Z,16.65
2017-01-05T11:28:12.725Z,16.59
2017-01-05T11:29:09.867Z,16.62
2017-01-05T11:30:13.327Z,17.19
2017-01-05T11:31:13.889Z,17.21
2017-01-05T11:32:13.647Z,17.20
2017-01-05T11:33:13.909Z,16.86
2017-01-05T11:34:13.033Z,16.67
2017-01-05T11:35:13.075Z,16.62
2017-01-05T11:36:12.340Z,16.60
2017-01-05T11:37:12.449Z,16.57
2017-01-05T11:38:13.174Z,16.56
2017-01-05T11:39:12.265Z,16.54
2017-01-05T11:40:11.503Z,16.55
2017-01-05T11:41:11.662Z,16.55
2017-01-05T11:42:11.727Z,16.54
2017-01-05T11:43:13.466Z,17.08
2017-01-05T11:44:13.693Z,16.79
2017-01-05T11:45:12.184Z,16.67
2017-01-05T11:46:12.749Z,16.59
2017-01-05T11:47:11.986Z,16.57
2017-01-05T11:48:12.086Z,16.56
2017-01-05T11:49:12.126Z,16.57
2017-01-05T11:50:12.638Z,16.56
2017-01-05T11:51:15.812Z,16.57
2017-01-05T11:52:11.738Z,16.57
2017-01-05T11:53:13.499Z,16.56
2017-01-05T11:54:13.355Z,16.58
2017-01-05T11:55:10.900Z,16.56
2017-01-05T11:56:12.767Z,16.57
2017-01-05T11:57:12.264Z,16.64
2017-01-05T11:58:12.203Z,16.57
2017-01-05T11:59:12.818Z,16.63
2017-01-05T12:00:13.855Z,16.59
2017-01-05T12:01:10.077Z,16.58
2017-01-05T12:02:11.245Z,16.58
2017-01-05T12:03:13.423Z,17.12
2017-01-05T12:04:13.956Z,17.18
2017-01-05T12:05:11.936Z,17.20
2017-01-05T12:06:10.611Z,17.21
2017-01-05T12:07:09.888Z,17.22
2017-01-05T12:08:12.557Z,17.22
2017-01-05T12:09:10.637Z,17.23
2017-01-05T12:10:13.398Z,17.22
2017-01-05T12:11:15.520Z,17.19
2017-01-05T12:12:11.220Z,16.65
2017-01-05T12:13:13.597Z,17.12
2017-01-05T12:14:12.459Z,17.14
2017-01-05T12:15:12.936Z,16.61
2017-01-05T12:16:11.710Z,16.55
2017-01-05T12:17:09.127Z,16.51
2017-01-05T12:18:13.356Z,16.50
2017-01-05T12:19:10.613Z,16.47
2017-01-05T12:20:09.442Z,16.47
2017-01-05T12:21:11.476Z,16.46
2017-01-05T12:22:14.413Z,16.99
2017-01-05T12:23:13.262Z,17.04
2017-01-05T12:24:12.299Z,16.54
2017-01-05T12:25:13.886Z,16.48
2017-01-05T12:26:11.934Z,16.46
2017-01-05T12:27:12.524Z,16.46
2017-01-05T12:28:13.566Z,16.45
2017-01-05T12:29:12.273Z,16.47
2017-01-05T12:30:12.271Z,16.44
2017-01-05T12:31:12.768Z,16.49
2017-01-05T12:32:12.789Z,16.46
2017-01-05T12:33:10.664Z,16.47
2017-01-05T12:34:13.758Z,17.03
2017-01-05T12:35:12.261Z,17.08
2017-01-05T12:36:13.123Z,17.10
2017-01-05T12:37:12.769Z,16.59
2017-01-05T12:38:12.830Z,16.54
2017-01-05T12:39:12.628Z,16.51
2017-01-05T12:40:13.477Z,16.50
2017-01-05T12:41:11.644Z,16.50
2017-01-05T12:42:14.824Z,16.49
2017-01-05T12:43:12.425Z,16.54
2017-01-05T12:44:13.607Z,16.50
2017-01-05T12:45:12.374Z,16.50
2017-01-05T12:46:14.267Z,16.51
2017-01-05T12:47:13.358Z,16.50
2017-01-05T12:48:12.404Z,16.51
2017-01-05T12:49:14.967Z,16.50
2017-01-05T12:50:12.158Z,16.51
2017-01-05T12:51:12.088Z,16.50
2017-01-05T12:52:09.968Z,16.49